Wheeler Sack Army Air Field
KGTB : now visible

Airfield :











YOU CAN JOIN US ON...

 
LOGIN :

Register | Disclaimer

   EN    FR    IT 

 









Legend :    VFR   Marginal VFR   IFR   Intensive IFR   Very Intensive IFR
Visi :
Ceiling :
>= 8 km
>= 3000ft
5 to 8 km
1000 to 3000 ft
1500m to 5 km
500 to 1000 ft
800 to 1500m
200 to 500 ft
< 800m
< 200 ft
Symbols :   Thunderstorms  Fog  Heavy snow  Heavy precipitations  Wind > 20 kt






- Airport Elevation : 688 ft


KGTB - Wheeler Sack Army Air Field

CURRENT METAR :
  • 090706Z AUTO 26007G15KT 10SM SCT011 OVC028 24/23 A2976 RMK AO2 CIG 012V028 CIG 027 RWY03 SLP072 FZRANO TSNO $

EXPIRED METARs :
  • 090656Z AUTO 26008G16KT 10SM BKN012 BKN029 OVC043 24/23 A2976 RMK AO2 PK WND 28026/19 SLP072 T02430227 FZRANO TSNO $
  • 090616Z AUTO 25013G19KT 10SM OVC014 25/23 A2975 RMK AO2 SLP069 FZRANO TSNO $
  • 090556Z AUTO 25013G22KT 10SM OVC015 25/23 A2975 RMK AO2 RAE0459DZB0459E03 CIG 014 RWY03 SLP069 P0000 60001 T02490226 10255 20245 55000 FZRANO TSNO $
  • 090523Z AUTO 24017G23KT 10SM BKN016 OVC021 25/23 A2975 RMK AO2 RAE0459DZB0459E03 SLP069 FZRANO TSNO $
  • 090503Z AUTO 23012KT 10SM OVC021 25/23 A2975 RMK AO2 RAE0459DZB0459E03 SLP069 FZRANO TSNO $
  • 090447Z AUTO 24013G21KT 10SM SCT024 OVC045 25/22 A2976 RMK AO2 RAB37E40DZB40E47 SLP073 FZRANO $
  • 090437Z AUTO 24015G19KT 10SM -RA BKN039 OVC046 25/22 A2976 RMK AO2 RAB37 SLP072 FZRANO $

TAF AMD TAF KGTB
Valid from the 09 at 06:00 until the 10 at 07:00 UTC


090600Z 0906/1007 26012G20KT 9999 BKN015 OVC020 QNH2975INS
BECMG 0906/0908 22009KT 8000 -SHRA BKN007 OVC015 QNH2976INS
BECMG 0917/0918 35008KT 9999 NSW OVC010 QNH3003INS
BECMG 1002/1003 32005KT 8000 BR SCT035 BKN045 QNH3009INS TX25/0906Z TN18/1001Z
KZBW FIR / North America



MET'MAP, your aeronautical weather chart ! - Copyright ORBIFLY December 2007 - Disclaimer

ORBIFLY MET'MAP TEAM :

Programming & Development : Alexandra Zaïnal
Original concept : Baudouin d'Aumeries
Technical & hardware support : Manuel Goepfert
Assistance : Marc-Olivier Méhu




SOURCES & CREDITS :

   NOAA       Earth
Advisory